createdAt,value
2016-09-28T00:00:52.822Z,91.55
2016-09-28T00:01:52.842Z,92.12
2016-09-28T00:02:52.868Z,92.03
2016-09-28T00:03:52.892Z,92.03
2016-09-28T00:04:52.914Z,91.83
2016-09-28T00:05:52.937Z,92.12
2016-09-28T00:06:52.962Z,92.41
2016-09-28T00:07:52.983Z,92.5
2016-09-28T00:08:53.003Z,92.46
2016-09-28T00:09:53.027Z,93.36
2016-09-28T00:11:53.075Z,93.41
2016-09-28T00:12:53.098Z,93.51
2016-09-28T00:14:08.045Z,92.88
2016-09-28T00:16:53.293Z,93.32
2016-09-28T00:17:53.210Z,93.22
2016-09-28T00:18:53.241Z,92.79
2016-09-28T00:19:53.256Z,92.79
2016-09-28T00:20:53.280Z,91.93
2016-09-28T00:21:53.305Z,92.03
2016-09-28T00:22:53.327Z,92.79
2016-09-28T00:23:53.349Z,92.22
2016-09-28T00:24:53.370Z,92.22
2016-09-28T00:25:53.399Z,92.41
2016-09-28T00:27:53.451Z,93.12
2016-09-28T00:28:53.466Z,93.12
2016-09-28T00:29:53.487Z,93.88
2016-09-28T00:30:53.513Z,93.6
2016-09-28T00:31:53.536Z,94.46
2016-09-28T00:32:53.558Z,94.08
2016-09-28T00:33:53.578Z,94.56
2016-09-28T00:34:53.604Z,94.37
2016-09-28T00:35:53.625Z,94.17
2016-09-28T00:36:53.648Z,94.84
2016-09-28T00:37:53.666Z,94.56
2016-09-28T00:38:53.693Z,94.84
2016-09-28T00:39:53.765Z,94.65
2016-09-28T00:40:53.737Z,94.74
2016-09-28T00:42:53.781Z,93.98
2016-09-28T00:43:53.804Z,94.74
2016-09-28T00:44:53.827Z,94.27
2016-09-28T00:46:08.776Z,94.56
2016-09-28T00:46:53.874Z,94.46
2016-09-28T00:47:53.895Z,94.27
2016-09-28T00:48:53.921Z,94.17
2016-09-28T00:49:53.942Z,94.65
2016-09-28T00:50:53.963Z,94.08
2016-09-28T00:51:53.990Z,94.08
2016-09-28T00:52:54.016Z,94.37
2016-09-28T00:53:54.031Z,94.08
2016-09-28T00:54:54.059Z,94.74
2016-09-28T00:55:54.075Z,93.98
2016-09-28T00:56:54.101Z,94.37
2016-09-28T00:57:54.127Z,94.17
2016-09-28T00:58:54.144Z,93.98
2016-09-28T00:59:54.170Z,94.27
2016-09-28T01:00:54.195Z,93.79
2016-09-28T01:02:09.136Z,93.41
2016-09-28T01:02:54.237Z,93.79
2016-09-28T01:03:54.260Z,93.88
2016-09-28T01:04:54.280Z,93.6
2016-09-28T01:05:54.305Z,94.08
2016-09-28T01:06:54.331Z,94.74
2016-09-28T01:07:54.353Z,94.74
2016-09-28T01:08:54.374Z,95.03
2016-09-28T01:09:54.398Z,94.84
2016-09-28T01:10:54.417Z,95.03
2016-09-28T01:11:54.435Z,95.03
2016-09-28T01:12:54.464Z,94.93
2016-09-28T01:13:54.483Z,95.22
2016-09-28T01:15:54.530Z,94.84
2016-09-28T01:16:54.549Z,94.84
2016-09-28T01:18:09.597Z,95.03
2016-09-28T01:19:54.618Z,95.03
2016-09-28T01:20:54.651Z,94.84
2016-09-28T01:21:54.666Z,95.03
2016-09-28T01:22:54.689Z,94.84
2016-09-28T01:23:54.714Z,94.65
2016-09-28T01:24:54.735Z,95.22
2016-09-28T01:25:54.756Z,94.46
2016-09-28T01:26:54.781Z,94.46
2016-09-28T01:27:54.802Z,95.03
2016-09-28T01:28:54.827Z,94.84
2016-09-28T01:29:54.842Z,94.93
2016-09-28T01:30:54.867Z,94.93
2016-09-28T01:31:54.895Z,94.84
2016-09-28T01:32:54.912Z,94.93
2016-09-28T01:34:09.861Z,95.32
2016-09-28T01:34:54.961Z,94.93
2016-09-28T01:35:54.981Z,95.03
2016-09-28T01:36:55.004Z,95.12
2016-09-28T01:37:55.024Z,95.79
2016-09-28T01:39:55.070Z,95.41
2016-09-28T01:40:55.092Z,95.22
2016-09-28T01:41:55.124Z,95.41
2016-09-28T01:42:55.156Z,95.7
2016-09-28T01:43:55.161Z,95.7
2016-09-28T01:44:55.182Z,95.65
2016-09-28T01:45:55.208Z,96.08
2016-09-28T01:46:55.231Z,96.08
2016-09-28T01:47:55.255Z,96.03
2016-09-28T01:49:10.199Z,96.17
2016-09-28T01:49:55.300Z,96.12
2016-09-28T01:50:55.332Z,95.98
2016-09-28T01:51:55.344Z,96.17
2016-09-28T01:52:55.433Z,96.17
2016-09-28T01:53:55.395Z,96.51
2016-09-28T01:54:55.413Z,96.17
2016-09-28T01:55:55.435Z,96.12
2016-09-28T01:56:55.458Z,96.03
2016-09-28T01:57:55.478Z,96.12
2016-09-28T01:58:55.501Z,96.6
2016-09-28T01:59:55.578Z,96.22
2016-09-28T02:00:55.547Z,95.94
2016-09-28T02:01:55.564Z,96.03
2016-09-28T02:02:55.597Z,96.12
2016-09-28T02:03:55.617Z,95.94
2016-09-28T02:04:55.640Z,95.94
2016-09-28T02:06:55.684Z,96.03
2016-09-28T02:07:55.756Z,96.12
2016-09-28T02:08:55.730Z,96.03
2016-09-28T02:09:55.745Z,96.51
2016-09-28T02:10:55.774Z,96.7
2016-09-28T02:11:55.807Z,96.89
2016-09-28T02:12:55.811Z,96.41
2016-09-28T02:13:55.839Z,96.98
2016-09-28T02:14:55.867Z,96.8
2016-09-28T02:15:55.883Z,97.08
2016-09-28T02:16:55.904Z,97.36
2016-09-28T02:18:55.952Z,96.51
2016-09-28T02:19:55.970Z,97.17
2016-09-28T02:21:10.918Z,96.6
2016-09-28T02:21:56.016Z,96.7
2016-09-28T02:22:56.036Z,97.17
2016-09-28T02:23:56.063Z,96.6
2016-09-28T02:24:56.085Z,96.98
2016-09-28T02:25:56.111Z,96.7
2016-09-28T02:26:56.129Z,96.6
2016-09-28T02:27:56.153Z,97.27
2016-09-28T02:28:56.174Z,96.89
2016-09-28T02:29:56.199Z,97.17
2016-09-28T02:30:56.226Z,97.17
2016-09-28T02:31:56.251Z,97.36
2016-09-28T02:32:56.263Z,97.17
2016-09-28T02:33:56.290Z,96.98
2016-09-28T02:34:56.308Z,97.08
2016-09-28T02:35:56.328Z,96.98
2016-09-28T02:37:11.278Z,97.36
2016-09-28T02:37:56.376Z,97.17
2016-09-28T02:38:56.402Z,97.17
2016-09-28T02:39:56.420Z,97.46
2016-09-28T02:40:56.441Z,97.65
2016-09-28T02:41:56.465Z,97.65
2016-09-28T02:42:56.489Z,97.75
2016-09-28T02:43:56.510Z,98.03
2016-09-28T02:44:56.533Z,98.22
2016-09-28T02:45:56.556Z,98.32
2016-09-28T02:46:56.578Z,98.03
2016-09-28T02:47:56.602Z,98.32
2016-09-28T02:49:56.643Z,98.22
2016-09-28T02:50:56.666Z,98.22
2016-09-28T02:51:56.692Z,98.22
2016-09-28T02:53:11.635Z,98.79
2016-09-28T02:53:56.734Z,98.79
2016-09-28T02:54:56.753Z,98.32
2016-09-28T02:55:56.780Z,98.32
2016-09-28T02:56:56.804Z,98.79
2016-09-28T02:57:56.825Z,98.79
2016-09-28T02:58:56.848Z,98.7
2016-09-28T02:59:56.868Z,98.99
2016-09-28T03:00:56.891Z,98.99
2016-09-28T03:01:56.912Z,98.99
2016-09-28T03:02:56.938Z,99.37
2016-09-28T03:03:56.962Z,99.37
2016-09-28T03:04:56.977Z,99.27
2016-09-28T03:05:57.003Z,99.27
2016-09-28T03:07:57.049Z,99.55
2016-09-28T03:09:11.993Z,99.27
2016-09-28T03:09:57.090Z,99.18
2016-09-28T03:10:57.113Z,99.99
2016-09-28T03:11:57.133Z,99.46
2016-09-28T03:12:57.156Z,99.27
2016-09-28T03:13:57.177Z,99.18
2016-09-28T03:14:57.204Z,99.27
2016-09-28T03:15:57.226Z,99.99
2016-09-28T03:16:57.246Z,99.84
2016-09-28T03:17:57.277Z,99.94
2016-09-28T03:18:57.293Z,99.65
2016-09-28T03:19:57.318Z,99.75
2016-09-28T03:21:57.359Z,99.99
2016-09-28T03:22:57.384Z,99.65
2016-09-28T03:24:12.579Z,99.99
2016-09-28T03:24:57.431Z,99.99
2016-09-28T03:25:57.451Z,99.99
2016-09-28T03:26:57.475Z,99.99
2016-09-28T03:27:57.498Z,99.99
2016-09-28T03:28:57.521Z,99.99
2016-09-28T03:29:57.541Z,99.99
2016-09-28T03:30:57.563Z,99.99
2016-09-28T03:31:57.589Z,99.99
2016-09-28T03:32:57.604Z,99.99
2016-09-28T03:33:57.626Z,99.99
2016-09-28T03:34:57.655Z,99.99
2016-09-28T03:35:57.675Z,99.99
2016-09-28T03:36:57.698Z,99.99
2016-09-28T03:37:58.017Z,99.99
2016-09-28T03:38:57.742Z,99.99
2016-09-28T03:39:57.771Z,99.99
2016-09-28T03:40:57.783Z,99.99
2016-09-28T03:41:57.809Z,99.99
2016-09-28T03:42:57.829Z,99.99
2016-09-28T03:43:57.901Z,99.99
2016-09-28T03:44:57.875Z,99.99
2016-09-28T03:45:58.147Z,99.99
2016-09-28T03:46:57.918Z,99.99
2016-09-28T03:47:57.940Z,99.99
2016-09-28T03:48:57.961Z,99.99
2016-09-28T03:49:57.983Z,99.99
2016-09-28T03:50:58.009Z,99.99
2016-09-28T03:51:58.025Z,99.99
2016-09-28T03:52:58.049Z,99.99
2016-09-28T03:54:58.094Z,99.99
2016-09-28T03:56:13.042Z,99.99
2016-09-28T03:56:58.139Z,99.99
2016-09-28T03:57:58.261Z,99.99
2016-09-28T03:58:58.186Z,99.99
2016-09-28T03:59:58.205Z,99.99
2016-09-28T04:00:58.231Z,99.99
2016-09-28T04:01:58.253Z,99.99
2016-09-28T04:02:58.273Z,99.99
2016-09-28T04:03:58.314Z,99.99
2016-09-28T04:04:58.318Z,99.99
2016-09-28T04:05:58.339Z,99.99
2016-09-28T04:06:58.364Z,99.99
2016-09-28T04:07:58.382Z,99.99
2016-09-28T04:08:58.406Z,99.99
2016-09-28T04:09:58.429Z,99.99
2016-09-28T04:10:58.451Z,99.99
2016-09-28T04:12:13.396Z,99.99
2016-09-28T04:12:58.494Z,99.99
2016-09-28T04:13:58.520Z,99.99
2016-09-28T04:14:58.539Z,99.99
2016-09-28T04:15:58.560Z,99.99
2016-09-28T04:16:58.583Z,99.99
2016-09-28T04:17:58.608Z,99.99
2016-09-28T04:18:58.632Z,99.99
2016-09-28T04:19:58.653Z,99.99
2016-09-28T04:20:58.678Z,99.99
2016-09-28T04:21:58.700Z,99.99
2016-09-28T04:22:58.718Z,99.99
2016-09-28T04:23:58.742Z,99.99
2016-09-28T04:25:58.788Z,99.99
2016-09-28T04:26:58.808Z,99.99
2016-09-28T04:28:13.753Z,99.99
2016-09-28T04:28:58.904Z,99.99
2016-09-28T04:29:58.875Z,99.99
2016-09-28T04:30:58.897Z,99.99
2016-09-28T04:31:58.923Z,99.99
2016-09-28T04:32:58.944Z,99.99
2016-09-28T04:33:58.967Z,99.99
2016-09-28T04:34:58.987Z,99.99
2016-09-28T04:35:59.010Z,99.99
2016-09-28T04:36:59.036Z,99.99
2016-09-28T04:37:59.070Z,99.99
2016-09-28T04:38:59.077Z,99.99
2016-09-28T04:39:59.096Z,99.99
2016-09-28T04:40:59.120Z,99.99
2016-09-28T04:41:59.151Z,99.99
2016-09-28T04:42:59.169Z,99.99
2016-09-28T04:44:14.113Z,99.99
2016-09-28T04:44:59.212Z,99.99
2016-09-28T04:45:59.238Z,99.99
2016-09-28T04:46:59.255Z,99.99
2016-09-28T04:47:59.279Z,99.99
2016-09-28T04:48:59.331Z,99.99
2016-09-28T04:49:59.339Z,99.99
2016-09-28T04:50:59.348Z,99.99
2016-09-28T04:51:59.671Z,99.99
2016-09-28T04:52:59.389Z,99.99
2016-09-28T04:53:59.410Z,99.99
2016-09-28T04:54:59.437Z,99.99
2016-09-28T04:55:59.459Z,99.99
2016-09-28T04:56:59.481Z,99.99
2016-09-28T04:57:59.554Z,99.99
2016-09-28T04:59:14.447Z,99.99
2016-09-28T04:59:59.549Z,99.99
2016-09-28T05:00:59.566Z,99.99
2016-09-28T05:01:59.593Z,99.99
2016-09-28T05:02:59.614Z,99.99
2016-09-28T05:03:59.635Z,99.99
2016-09-28T05:04:59.659Z,99.99
2016-09-28T05:05:59.683Z,99.99
2016-09-28T05:06:59.703Z,99.99
2016-09-28T05:07:59.728Z,99.99
2016-09-28T05:08:59.800Z,99.99
2016-09-28T05:09:59.771Z,99.99
2016-09-28T05:12:00.120Z,99.99
2016-09-28T05:12:59.838Z,99.99
2016-09-28T05:14:59.887Z,99.99
2016-09-28T05:17:00.242Z,99.99
2016-09-28T05:17:59.950Z,99.99
2016-09-28T05:18:59.973Z,99.99
2016-09-28T05:19:59.992Z,99.99
2016-09-28T05:21:00.034Z,99.99
2016-09-28T05:22:00.040Z,99.99
2016-09-28T05:23:00.062Z,99.99
2016-09-28T05:24:00.083Z,99.99
2016-09-28T05:25:00.107Z,99.99
2016-09-28T05:26:00.134Z,99.99
2016-09-28T05:27:00.155Z,99.99
2016-09-28T05:28:00.182Z,99.99
2016-09-28T05:29:00.200Z,99.99
2016-09-28T05:30:00.225Z,99.99
2016-09-28T05:31:15.166Z,99.99
2016-09-28T05:32:00.266Z,99.99
2016-09-28T05:33:00.285Z,99.99
2016-09-28T05:34:00.308Z,99.99
2016-09-28T05:35:00.336Z,99.99
2016-09-28T05:36:00.355Z,99.99
2016-09-28T05:37:00.381Z,99.99
2016-09-28T05:38:00.400Z,99.99
2016-09-28T05:39:00.420Z,99.99
2016-09-28T05:40:00.442Z,99.99
2016-09-28T05:41:00.469Z,99.99
2016-09-28T05:43:00.515Z,99.99
2016-09-28T05:44:00.538Z,99.99
2016-09-28T05:45:00.558Z,99.99
2016-09-28T05:46:00.583Z,99.99
2016-09-28T05:47:15.533Z,99.99
2016-09-28T05:48:00.625Z,99.99
2016-09-28T05:49:00.649Z,99.99
2016-09-28T05:50:00.673Z,99.99
2016-09-28T05:51:00.695Z,99.99
2016-09-28T05:52:00.734Z,99.99
2016-09-28T05:53:00.742Z,99.99
2016-09-28T05:54:00.766Z,99.99
2016-09-28T05:55:00.792Z,99.99
2016-09-28T05:56:00.808Z,99.99
2016-09-28T05:57:00.832Z,99.99
2016-09-28T05:58:00.858Z,99.99
2016-09-28T05:59:00.879Z,99.99
2016-09-28T06:00:00.904Z,99.99
2016-09-28T06:01:00.930Z,99.99
2016-09-28T06:02:00.951Z,99.99
2016-09-28T06:03:15.896Z,99.99
2016-09-28T06:04:00.998Z,99.99
2016-09-28T06:05:01.019Z,99.99
2016-09-28T06:06:01.042Z,99.99
2016-09-28T06:07:01.065Z,99.99
2016-09-28T06:08:01.091Z,99.99
2016-09-28T06:09:01.107Z,99.99
2016-09-28T06:10:01.137Z,99.99
2016-09-28T06:11:01.158Z,99.99
2016-09-28T06:12:01.176Z,99.99
2016-09-28T06:13:01.205Z,99.99
2016-09-28T06:14:01.227Z,99.99
2016-09-28T06:15:01.248Z,99.99
2016-09-28T06:16:01.273Z,99.99
2016-09-28T06:17:01.293Z,99.99
2016-09-28T06:18:01.314Z,99.99
2016-09-28T06:19:16.264Z,99.99
2016-09-28T06:20:01.366Z,99.99
2016-09-28T06:21:01.386Z,99.99
2016-09-28T06:22:01.407Z,99.99
2016-09-28T06:23:01.474Z,99.66
2016-09-28T06:24:01.473Z,99.85
2016-09-28T06:25:01.478Z,99.76
2016-09-28T06:26:01.501Z,99.38
2016-09-28T06:28:01.551Z,98.23
2016-09-28T06:29:01.575Z,98.09
2016-09-28T06:30:01.598Z,97.04
2016-09-28T06:32:01.642Z,96.84
2016-09-28T06:33:01.671Z,96.56
2016-09-28T06:34:16.616Z,96.75
2016-09-28T06:35:01.715Z,96.37
2016-09-28T06:36:01.737Z,96.27
2016-09-28T06:37:01.760Z,95.79
2016-09-28T06:38:01.785Z,96.37
2016-09-28T06:39:01.811Z,95.98
2016-09-28T06:40:01.832Z,96.08
2016-09-28T06:41:01.855Z,95.79
2016-09-28T06:42:01.883Z,95.89
2016-09-28T06:43:01.902Z,95.41
2016-09-28T06:44:01.925Z,95.7
2016-09-28T06:45:01.949Z,95.41
2016-09-28T06:46:01.975Z,95.32
2016-09-28T06:47:01.997Z,95.12
2016-09-28T06:48:02.018Z,95.46
2016-09-28T06:49:02.041Z,95.12
2016-09-28T06:50:02.071Z,94.36
2016-09-28T06:52:02.118Z,94.5
2016-09-28T06:53:02.137Z,94.12
2016-09-28T06:54:02.165Z,93.55
2016-09-28T06:55:02.180Z,93.84
2016-09-28T06:56:02.211Z,93.45
2016-09-28T06:57:02.231Z,93.16
2016-09-28T06:58:02.254Z,93.64
2016-09-28T06:59:02.282Z,93.16
2016-09-28T07:00:02.303Z,92.88
2016-09-28T07:01:02.327Z,93.07
2016-09-28T07:02:02.347Z,92.25
2016-09-28T07:03:02.373Z,92.54
2016-09-28T07:04:02.398Z,92.44
2016-09-28T07:05:02.421Z,92.21
2016-09-28T07:06:17.365Z,92.25
2016-09-28T07:07:02.469Z,92.54
2016-09-28T07:08:02.499Z,92.44
2016-09-28T07:09:02.517Z,92.54
2016-09-28T07:10:02.535Z,92.06
2016-09-28T07:11:02.560Z,92.25
2016-09-28T07:12:02.589Z,92.16
2016-09-28T07:13:02.612Z,91.58
2016-09-28T07:14:02.631Z,91.49
2016-09-28T07:15:02.661Z,91.58
2016-09-28T07:16:02.681Z,91.11
2016-09-28T07:17:02.707Z,90.72
2016-09-28T07:18:02.730Z,90.63
2016-09-28T07:19:02.750Z,90.86
2016-09-28T07:20:02.774Z,90
2016-09-28T07:21:02.801Z,90.34
2016-09-28T07:22:17.749Z,90.29
2016-09-28T07:23:02.848Z,90.29
2016-09-28T07:24:02.885Z,90.19
2016-09-28T07:25:02.898Z,90.19
2016-09-28T07:26:02.923Z,90.09
2016-09-28T07:27:02.944Z,89.33
2016-09-28T07:28:02.966Z,89.14
2016-09-28T07:29:02.995Z,88.76
2016-09-28T07:30:03.014Z,89.33
2016-09-28T07:31:03.039Z,88.85
2016-09-28T07:32:03.061Z,88.99
2016-09-28T07:33:03.087Z,88.23
2016-09-28T07:35:03.131Z,88.42
2016-09-28T07:36:03.261Z,88.03
2016-09-28T07:37:03.183Z,88.23
2016-09-28T07:38:18.128Z,87.46
2016-09-28T07:40:03.255Z,86.88
2016-09-28T07:41:03.278Z,86.98
2016-09-28T07:42:03.306Z,86.54
2016-09-28T07:43:03.325Z,86.25
2016-09-28T07:44:03.350Z,86.64
2016-09-28T07:45:03.380Z,85.78
2016-09-28T07:46:03.401Z,85.49
2016-09-28T07:47:03.428Z,85.01
2016-09-28T07:48:03.451Z,85.11
2016-09-28T07:49:03.475Z,84.53
2016-09-28T07:52:03.552Z,84
2016-09-28T07:53:03.581Z,83.52
2016-09-28T07:54:18.519Z,82.94
2016-09-28T07:55:03.621Z,82.46
2016-09-28T07:56:03.649Z,82.08
2016-09-28T07:57:03.668Z,81.93
2016-09-28T07:58:03.701Z,82.21
2016-09-28T07:59:03.724Z,81.45
2016-09-28T08:00:03.743Z,81.84
2016-09-28T08:01:04.067Z,81.16
2016-09-28T08:02:03.793Z,80.3
2016-09-28T08:03:03.820Z,80.53
2016-09-28T08:04:03.842Z,79.96
2016-09-28T08:05:03.869Z,80.53
2016-09-28T08:06:03.895Z,79.76
2016-09-28T08:07:03.919Z,78.52
2016-09-28T08:08:03.945Z,78.32
2016-09-28T08:09:18.891Z,78.42
2016-09-28T08:10:03.995Z,78.17
2016-09-28T08:11:04.018Z,78.17
2016-09-28T08:12:04.045Z,77.11
2016-09-28T08:13:04.067Z,76.82
2016-09-28T08:14:04.102Z,77.11
2016-09-28T08:15:04.120Z,76.64
2016-09-28T08:16:04.145Z,75.9
2016-09-28T08:17:04.172Z,75.13
2016-09-28T08:18:04.194Z,75.23
2016-09-28T08:19:04.219Z,75.32
2016-09-28T08:20:04.246Z,75.23
2016-09-28T08:22:04.298Z,74.3
2016-09-28T08:23:04.332Z,73.83
2016-09-28T08:24:04.350Z,73.73
2016-09-28T08:25:04.374Z,73.73
2016-09-28T08:27:04.422Z,72.96
2016-09-28T08:28:04.450Z,72.77
2016-09-28T08:29:04.474Z,73.06
2016-09-28T08:30:04.499Z,73.73
2016-09-28T08:31:04.528Z,73.06
2016-09-28T08:32:04.552Z,72.48
2016-09-28T08:33:04.581Z,72.71
2016-09-28T08:34:04.606Z,73.15
2016-09-28T08:35:04.929Z,72.19
2016-09-28T08:36:04.908Z,72.19
2016-09-28T08:37:04.681Z,71.26
2016-09-28T08:38:04.703Z,72.52
2016-09-28T08:39:04.734Z,72.29
2016-09-28T08:40:04.760Z,71.81
2016-09-28T08:41:19.704Z,71.42
2016-09-28T08:42:04.811Z,71.71
2016-09-28T08:43:04.834Z,71.81
2016-09-28T08:44:04.858Z,71.91
2016-09-28T08:45:04.886Z,71.14
2016-09-28T08:46:04.909Z,71.71
2016-09-28T08:47:04.936Z,71.42
2016-09-28T08:48:04.961Z,70.75
2016-09-28T08:49:04.990Z,70.75
2016-09-28T08:50:05.031Z,70.78
2016-09-28T08:51:05.037Z,70.59
2016-09-28T08:52:05.061Z,70.3
2016-09-28T08:54:05.117Z,69.82
2016-09-28T08:55:05.140Z,69.06
2016-09-28T08:56:05.168Z,69.53
2016-09-28T08:57:20.113Z,69.34
2016-09-28T08:58:05.223Z,69.44
2016-09-28T08:59:05.244Z,69.63
2016-09-28T09:00:05.272Z,69.34
2016-09-28T09:01:05.297Z,68.29
2016-09-28T09:02:05.320Z,68.32
2016-09-28T09:03:05.344Z,68.6
2016-09-28T09:04:05.373Z,67.74
2016-09-28T09:05:05.402Z,68.32
2016-09-28T09:06:05.425Z,67.74
2016-09-28T09:07:05.448Z,67.55
2016-09-28T09:08:05.476Z,67.1
2016-09-28T09:09:05.498Z,66.91
2016-09-28T09:10:05.523Z,67.58
2016-09-28T09:11:05.563Z,67
2016-09-28T09:12:05.581Z,66.81
2016-09-28T09:13:20.526Z,67
2016-09-28T09:14:05.631Z,66.91
2016-09-28T09:15:05.660Z,66.68
2016-09-28T09:16:05.680Z,67.58
2016-09-28T09:17:05.710Z,66.62
2016-09-28T09:18:05.731Z,65.85
2016-09-28T09:19:05.761Z,66.52
2016-09-28T09:20:05.783Z,66.52
2016-09-28T09:21:05.814Z,65.66
2016-09-28T09:22:05.837Z,66.14
2016-09-28T09:23:05.865Z,66.62
2016-09-28T09:24:05.891Z,65.11
2016-09-28T09:25:05.916Z,65.4
2016-09-28T09:26:05.943Z,65.98
2016-09-28T09:27:05.963Z,65.98
2016-09-28T09:28:05.997Z,65.69
2016-09-28T09:29:20.943Z,65.85
2016-09-28T09:30:06.047Z,65.56
2016-09-28T09:31:06.073Z,65.75
2016-09-28T09:32:06.097Z,65.56
2016-09-28T09:33:06.127Z,65.94
2016-09-28T09:34:06.149Z,66.04
2016-09-28T09:35:06.175Z,65.46
2016-09-28T09:36:06.198Z,65.94
2016-09-28T09:37:06.243Z,65.37
2016-09-28T09:38:06.256Z,65.46
2016-09-28T09:39:06.282Z,65.75
2016-09-28T09:40:06.306Z,65.85
2016-09-28T09:41:06.328Z,64.89
2016-09-28T09:43:06.387Z,64.82
2016-09-28T09:44:21.335Z,65.2
2016-09-28T09:46:06.463Z,64.69
2016-09-28T09:47:06.491Z,65.66
2016-09-28T09:48:06.517Z,65.94
2016-09-28T09:49:06.541Z,65.08
2016-09-28T09:50:06.569Z,65.37
2016-09-28T09:51:06.595Z,66.04
2016-09-28T09:52:06.620Z,66.04
2016-09-28T09:53:06.645Z,65.81
2016-09-28T09:54:06.672Z,65.75
2016-09-28T09:55:06.697Z,65.94
2016-09-28T09:56:06.771Z,65.81
2016-09-28T09:57:06.748Z,65.27
2016-09-28T09:58:06.778Z,65.75
2016-09-28T09:59:06.800Z,65.75
2016-09-28T10:00:06.830Z,66.3
2016-09-28T10:01:06.853Z,65.17
2016-09-28T10:02:06.876Z,65.94
2016-09-28T10:03:06.904Z,65.85
2016-09-28T10:04:06.925Z,66.24
2016-09-28T10:05:06.954Z,66.14
2016-09-28T10:06:06.980Z,65.37
2016-09-28T10:07:07.005Z,65.37
2016-09-28T10:08:07.034Z,65.85
2016-09-28T10:10:07.089Z,65.85
2016-09-28T10:11:07.114Z,65.94
2016-09-28T10:12:07.141Z,65.85
2016-09-28T10:13:07.159Z,65.56
2016-09-28T10:14:07.205Z,66.24
2016-09-28T10:15:07.213Z,66.33
2016-09-28T10:16:22.165Z,66.33
2016-09-28T10:17:07.265Z,65.94
2016-09-28T10:18:07.301Z,66.62
2016-09-28T10:19:07.318Z,65.94
2016-09-28T10:20:07.345Z,66.71
2016-09-28T10:21:07.367Z,66.68
2016-09-28T10:22:07.395Z,66.71
2016-09-28T10:23:07.425Z,66.58
2016-09-28T10:24:07.446Z,66.49
2016-09-28T10:25:07.473Z,66.33
2016-09-28T10:26:07.501Z,66.58
2016-09-28T10:27:07.527Z,66.24
2016-09-28T10:28:07.553Z,66.14
2016-09-28T10:29:07.582Z,66.24
2016-09-28T10:30:07.602Z,66.24
2016-09-28T10:31:07.631Z,66.14
2016-09-28T10:32:22.580Z,65.66
2016-09-28T10:33:07.679Z,65.78
2016-09-28T10:34:07.715Z,64.82
2016-09-28T10:35:07.750Z,64.82
2016-09-28T10:36:07.756Z,65.01
2016-09-28T10:37:07.786Z,64.82
2016-09-28T10:38:07.811Z,65.01
2016-09-28T10:39:07.838Z,64.82
2016-09-28T10:40:07.862Z,64.82
2016-09-28T10:41:07.886Z,65.2
2016-09-28T10:42:07.914Z,64.92
2016-09-28T10:43:07.944Z,65.5
2016-09-28T10:44:07.970Z,65.2
2016-09-28T10:45:07.994Z,65.59
2016-09-28T10:46:08.022Z,65.5
2016-09-28T10:47:08.047Z,65.01
2016-09-28T10:48:22.995Z,64.92
2016-09-28T10:49:08.100Z,64.92
2016-09-28T10:50:08.130Z,65.11
2016-09-28T10:51:08.151Z,65.3
2016-09-28T10:52:08.173Z,64.92
2016-09-28T10:53:08.202Z,65.3
2016-09-28T10:54:08.229Z,65.01
2016-09-28T10:55:08.253Z,64.53
2016-09-28T10:56:08.279Z,65.01
2016-09-28T10:57:08.304Z,64.47
2016-09-28T10:58:08.336Z,64.76
2016-09-28T10:59:08.357Z,64.86
2016-09-28T11:00:08.383Z,64.76
2016-09-28T11:01:08.413Z,64.47
2016-09-28T11:02:08.435Z,64.18
2016-09-28T11:03:08.465Z,64.47
2016-09-28T11:04:23.411Z,63.6
2016-09-28T11:05:08.517Z,64.47
2016-09-28T11:06:08.538Z,64.18
2016-09-28T11:07:08.565Z,64.08
2016-09-28T11:08:08.594Z,63.57
2016-09-28T11:09:08.623Z,64.08
2016-09-28T11:10:08.646Z,64.37
2016-09-28T11:11:08.671Z,63.7
2016-09-28T11:12:08.700Z,63.98
2016-09-28T11:13:08.724Z,63.79
2016-09-28T11:14:08.753Z,64.05
2016-09-28T11:15:08.779Z,64.08
2016-09-28T11:16:08.802Z,63.98
2016-09-28T11:17:08.830Z,63.5
2016-09-28T11:18:08.856Z,62.93
2016-09-28T11:19:23.807Z,63.12
2016-09-28T11:20:08.915Z,63.12
2016-09-28T11:21:08.932Z,62.63
2016-09-28T11:22:08.958Z,63.06
2016-09-28T11:23:08.992Z,62.18
2016-09-28T11:24:09.015Z,61.99
2016-09-28T11:25:09.039Z,61.54
2016-09-28T11:26:09.063Z,60.96
2016-09-28T11:27:09.097Z,60.68
2016-09-28T11:28:09.121Z,60.13
2016-09-28T11:29:09.160Z,60.38
2016-09-28T11:30:09.172Z,60.8
2016-09-28T11:33:09.251Z,60.41
2016-09-28T11:34:09.278Z,60.71
2016-09-28T11:35:09.307Z,60.31
2016-09-28T11:37:09.361Z,59.58
2016-09-28T11:38:09.384Z,59.09
2016-09-28T11:39:09.417Z,58.8
2016-09-28T11:40:09.439Z,58.61
2016-09-28T11:41:09.471Z,58.42
2016-09-28T11:42:09.496Z,58.15
2016-09-28T11:43:09.519Z,57.87
2016-09-28T11:44:09.546Z,57.48
2016-09-28T11:45:09.580Z,57.67
2016-09-28T11:46:09.601Z,57.67
2016-09-28T11:47:09.631Z,57.38
2016-09-28T11:48:09.661Z,57.67
2016-09-28T11:49:09.686Z,57.87
2016-09-28T11:51:24.662Z,57.67
2016-09-28T11:52:09.768Z,57.57
2016-09-28T11:53:09.796Z,57.57
2016-09-28T11:54:09.829Z,57.57
2016-09-28T11:55:10.148Z,57.57
2016-09-28T11:56:09.887Z,57.77
2016-09-28T11:57:09.906Z,57.7
2016-09-28T11:58:09.932Z,57.87
2016-09-28T11:59:09.960Z,57.48
2016-09-28T12:00:09.988Z,57.77
2016-09-28T12:01:10.210Z,58.06
2016-09-28T12:02:10.040Z,58.73
2016-09-28T12:03:10.066Z,58.64
2016-09-28T12:04:10.094Z,58.51
2016-09-28T12:05:10.124Z,58.7
2016-09-28T12:06:10.155Z,58.42
2016-09-28T12:07:25.104Z,58.35
2016-09-28T12:08:10.208Z,58.54
2016-09-28T12:09:10.233Z,57.84
2016-09-28T12:10:10.256Z,58.45
2016-09-28T12:11:10.290Z,58.61
2016-09-28T12:12:10.316Z,58.12
2016-09-28T12:13:10.343Z,58.51
2016-09-28T12:14:10.372Z,58.22
2016-09-28T12:15:10.400Z,58.51
2016-09-28T12:16:10.422Z,58.32
2016-09-28T12:17:10.450Z,58.7
2016-09-28T12:18:10.483Z,58.8
2016-09-28T12:21:10.561Z,58.51
2016-09-28T12:22:10.589Z,58.8
2016-09-28T12:23:25.541Z,59.16
2016-09-28T12:24:10.646Z,58.97
2016-09-28T12:25:10.669Z,58.97
2016-09-28T12:26:10.702Z,59.45
2016-09-28T12:27:10.726Z,60.03
2016-09-28T12:28:10.753Z,59.64
2016-09-28T12:29:10.785Z,59.74
2016-09-28T12:30:10.806Z,59.93
2016-09-28T12:31:10.838Z,59.64
2016-09-28T12:32:10.861Z,59.83
2016-09-28T12:33:10.886Z,59.06
2016-09-28T12:34:10.913Z,58.9
2016-09-28T12:35:10.991Z,59.09
2016-09-28T12:37:10.997Z,58.61
2016-09-28T12:38:11.022Z,58.9
2016-09-28T12:39:25.977Z,58.03
2016-09-28T12:40:11.083Z,58.61
2016-09-28T12:41:11.109Z,57.74
2016-09-28T12:42:11.137Z,57.84
2016-09-28T12:43:11.161Z,57.93
2016-09-28T12:44:11.189Z,58.42
2016-09-28T12:45:11.219Z,58.51
2016-09-28T12:46:11.248Z,57.74
2016-09-28T12:47:11.271Z,57.64
2016-09-28T12:48:11.300Z,57.74
2016-09-28T12:49:11.323Z,57.71
2016-09-28T12:50:11.361Z,57.9
2016-09-28T12:52:11.406Z,57.81
2016-09-28T12:53:11.442Z,57.9
2016-09-28T12:54:26.386Z,57.71
2016-09-28T12:55:11.492Z,57.9
2016-09-28T12:57:11.542Z,58
2016-09-28T12:58:11.571Z,58.39
2016-09-28T12:59:11.602Z,58.75
2016-09-28T13:00:11.624Z,58.58
2016-09-28T13:01:11.951Z,58.65
2016-09-28T13:02:11.684Z,58.48
2016-09-28T13:03:11.702Z,58.36
2016-09-28T13:04:11.735Z,57.9
2016-09-28T13:05:11.765Z,57.71
2016-09-28T13:07:11.817Z,57.32
2016-09-28T13:08:11.843Z,57.45
2016-09-28T13:09:11.871Z,56.74
2016-09-28T13:10:11.900Z,56.29
2016-09-28T13:11:11.925Z,56.65
2016-09-28T13:12:11.955Z,56.74
2016-09-28T13:13:11.983Z,56.94
2016-09-28T13:14:12.004Z,57.23
2016-09-28T13:15:12.033Z,56.74
2016-09-28T13:16:12.072Z,56.56
2016-09-28T13:17:12.088Z,56.56
2016-09-28T13:18:12.119Z,56.84
2016-09-28T13:19:12.142Z,56.94
2016-09-28T13:20:12.165Z,56.56
2016-09-28T13:21:12.195Z,56.56
2016-09-28T13:22:12.222Z,56.43
2016-09-28T13:24:12.279Z,56.26
2016-09-28T13:25:12.301Z,56.33
2016-09-28T13:26:27.263Z,56.26
2016-09-28T13:27:12.358Z,55.4
2016-09-28T13:28:12.390Z,55.3
2016-09-28T13:29:12.412Z,55.78
2016-09-28T13:30:12.444Z,55.49
2016-09-28T13:31:12.472Z,55.4
2016-09-28T13:32:12.495Z,56.14
2016-09-28T13:33:12.526Z,55.2
2016-09-28T13:34:12.549Z,56.26
2016-09-28T13:35:12.578Z,56.36
2016-09-28T13:36:12.606Z,56.26
2016-09-28T13:37:12.628Z,56.07
2016-09-28T13:38:12.662Z,56.56